sensor_id;sensor_type;location;lat;lon;timestamp;P1;durP1;ratioP1;P2;durP2;ratioP2
62584;SDS011;48643;51.670;5.808;2024-02-26T00:02:07;4.63;;;3.10;;
62584;SDS011;48643;51.670;5.808;2024-02-26T00:04:34;4.40;;;3.10;;
62584;SDS011;48643;51.670;5.808;2024-02-26T00:07:01;4.50;;;2.88;;
62584;SDS011;48643;51.670;5.808;2024-02-26T00:09:28;4.68;;;3.00;;
62584;SDS011;48643;51.670;5.808;2024-02-26T00:11:56;6.20;;;2.90;;
62584;SDS011;48643;51.670;5.808;2024-02-26T00:14:24;7.65;;;3.25;;
62584;SDS011;48643;51.670;5.808;2024-02-26T00:16:51;5.20;;;3.00;;
62584;SDS011;48643;51.670;5.808;2024-02-26T00:19:18;4.47;;;2.75;;
62584;SDS011;48643;51.670;5.808;2024-02-26T00:21:45;4.55;;;2.90;;
62584;SDS011;48643;51.670;5.808;2024-02-26T00:24:12;4.65;;;2.90;;
62584;SDS011;48643;51.670;5.808;2024-02-26T00:26:39;3.97;;;2.90;;
62584;SDS011;48643;51.670;5.808;2024-02-26T00:29:06;3.70;;;2.80;;
62584;SDS011;48643;51.670;5.808;2024-02-26T00:31:33;3.65;;;2.70;;
62584;SDS011;48643;51.670;5.808;2024-02-26T00:34:00;4.70;;;3.00;;
62584;SDS011;48643;51.670;5.808;2024-02-26T00:36:27;4.65;;;2.72;;
62584;SDS011;48643;51.670;5.808;2024-02-26T00:38:54;3.80;;;2.72;;
62584;SDS011;48643;51.670;5.808;2024-02-26T00:41:20;4.80;;;2.80;;
62584;SDS011;48643;51.670;5.808;2024-02-26T00:43:47;6.90;;;2.70;;
62584;SDS011;48643;51.670;5.808;2024-02-26T00:46:14;4.25;;;2.67;;
62584;SDS011;48643;51.670;5.808;2024-02-26T00:48:41;4.03;;;2.50;;
62584;SDS011;48643;51.670;5.808;2024-02-26T00:51:08;3.75;;;2.50;;
62584;SDS011;48643;51.670;5.808;2024-02-26T00:53:35;4.85;;;2.70;;
62584;SDS011;48643;51.670;5.808;2024-02-26T00:56:02;3.72;;;2.50;;
62584;SDS011;48643;51.670;5.808;2024-02-26T00:58:29;3.95;;;2.50;;
62584;SDS011;48643;51.670;5.808;2024-02-26T01:00:56;4.05;;;2.60;;
62584;SDS011;48643;51.670;5.808;2024-02-26T01:03:23;3.55;;;2.50;;
62584;SDS011;48643;51.670;5.808;2024-02-26T01:05:51;5.38;;;2.60;;
62584;SDS011;48643;51.670;5.808;2024-02-26T01:08:22;4.35;;;2.80;;
62584;SDS011;48643;51.670;5.808;2024-02-26T01:10:49;4.93;;;2.67;;
62584;SDS011;48643;51.670;5.808;2024-02-26T01:13:16;3.83;;;2.75;;
62584;SDS011;48643;51.670;5.808;2024-02-26T01:15:43;3.53;;;2.47;;
62584;SDS011;48643;51.670;5.808;2024-02-26T01:18:11;4.20;;;2.72;;
62584;SDS011;48643;51.670;5.808;2024-02-26T01:20:38;4.43;;;2.78;;
62584;SDS011;48643;51.670;5.808;2024-02-26T01:23:05;3.55;;;2.45;;
62584;SDS011;48643;51.670;5.808;2024-02-26T01:25:32;3.55;;;2.53;;
62584;SDS011;48643;51.670;5.808;2024-02-26T01:27:59;3.97;;;2.60;;
62584;SDS011;48643;51.670;5.808;2024-02-26T01:30:26;4.25;;;2.47;;
62584;SDS011;48643;51.670;5.808;2024-02-26T01:32:53;5.25;;;2.65;;
62584;SDS011;48643;51.670;5.808;2024-02-26T01:35:20;3.38;;;2.50;;
62584;SDS011;48643;51.670;5.808;2024-02-26T01:37:47;3.33;;;2.40;;
62584;SDS011;48643;51.670;5.808;2024-02-26T01:40:14;5.25;;;2.60;;
62584;SDS011;48643;51.670;5.808;2024-02-26T01:42:46;4.15;;;2.38;;
62584;SDS011;48643;51.670;5.808;2024-02-26T01:45:16;4.00;;;2.60;;
62584;SDS011;48643;51.670;5.808;2024-02-26T01:47:53;3.42;;;2.35;;
62584;SDS011;48643;51.670;5.808;2024-02-26T01:50:21;3.60;;;2.50;;
62584;SDS011;48643;51.670;5.808;2024-02-26T01:52:49;4.25;;;2.42;;
62584;SDS011;48643;51.670;5.808;2024-02-26T01:55:17;3.42;;;2.20;;
62584;SDS011;48643;51.670;5.808;2024-02-26T01:57:45;3.60;;;2.50;;
62584;SDS011;48643;51.670;5.808;2024-02-26T02:00:12;3.92;;;2.50;;
62584;SDS011;48643;51.670;5.808;2024-02-26T02:02:40;3.53;;;2.33;;
62584;SDS011;48643;51.670;5.808;2024-02-26T02:05:08;4.28;;;2.60;;
62584;SDS011;48643;51.670;5.808;2024-02-26T02:07:35;3.95;;;2.60;;
62584;SDS011;48643;51.670;5.808;2024-02-26T02:10:03;4.57;;;2.10;;
62584;SDS011;48643;51.670;5.808;2024-02-26T02:12:31;3.13;;;2.30;;
62584;SDS011;48643;51.670;5.808;2024-02-26T02:15:00;3.22;;;2.28;;
62584;SDS011;48643;51.670;5.808;2024-02-26T02:17:28;6.57;;;2.70;;
62584;SDS011;48643;51.670;5.808;2024-02-26T02:19:55;3.17;;;2.30;;
62584;SDS011;48643;51.670;5.808;2024-02-26T02:22:22;3.92;;;2.70;;
62584;SDS011;48643;51.670;5.808;2024-02-26T02:24:51;5.22;;;2.40;;
62584;SDS011;48643;51.670;5.808;2024-02-26T02:27:19;4.07;;;2.47;;
62584;SDS011;48643;51.670;5.808;2024-02-26T02:29:46;3.58;;;2.42;;
62584;SDS011;48643;51.670;5.808;2024-02-26T02:32:14;3.30;;;2.30;;
62584;SDS011;48643;51.670;5.808;2024-02-26T02:34:42;5.80;;;2.67;;
62584;SDS011;48643;51.670;5.808;2024-02-26T02:37:09;3.13;;;2.42;;
62584;SDS011;48643;51.670;5.808;2024-02-26T02:39:36;3.30;;;2.20;;
62584;SDS011;48643;51.670;5.808;2024-02-26T02:42:03;3.65;;;2.38;;
62584;SDS011;48643;51.670;5.808;2024-02-26T02:44:30;5.38;;;2.30;;
62584;SDS011;48643;51.670;5.808;2024-02-26T02:46:57;3.42;;;2.30;;
62584;SDS011;48643;51.670;5.808;2024-02-26T02:49:24;2.88;;;2.10;;
62584;SDS011;48643;51.670;5.808;2024-02-26T02:51:51;4.18;;;2.47;;
62584;SDS011;48643;51.670;5.808;2024-02-26T02:54:20;3.45;;;2.38;;
62584;SDS011;48643;51.670;5.808;2024-02-26T02:56:47;3.40;;;2.22;;
62584;SDS011;48643;51.670;5.808;2024-02-26T02:59:14;4.13;;;2.20;;
62584;SDS011;48643;51.670;5.808;2024-02-26T03:01:41;5.85;;;2.47;;
62584;SDS011;48643;51.670;5.808;2024-02-26T03:04:08;3.67;;;2.25;;
62584;SDS011;48643;51.670;5.808;2024-02-26T03:06:35;7.38;;;2.40;;
62584;SDS011;48643;51.670;5.808;2024-02-26T03:09:02;2.75;;;2.20;;
62584;SDS011;48643;51.670;5.808;2024-02-26T03:11:29;3.53;;;2.40;;
62584;SDS011;48643;51.670;5.808;2024-02-26T03:13:56;4.40;;;2.47;;
62584;SDS011;48643;51.670;5.808;2024-02-26T03:16:22;3.25;;;2.30;;
62584;SDS011;48643;51.670;5.808;2024-02-26T03:18:49;3.15;;;2.35;;
62584;SDS011;48643;51.670;5.808;2024-02-26T03:21:16;3.55;;;2.30;;
62584;SDS011;48643;51.670;5.808;2024-02-26T03:23:44;3.30;;;2.30;;
62584;SDS011;48643;51.670;5.808;2024-02-26T03:26:11;4.03;;;2.30;;
62584;SDS011;48643;51.670;5.808;2024-02-26T03:28:40;3.15;;;2.20;;
62584;SDS011;48643;51.670;5.808;2024-02-26T03:31:07;2.85;;;2.20;;
62584;SDS011;48643;51.670;5.808;2024-02-26T03:33:34;4.47;;;2.33;;
62584;SDS011;48643;51.670;5.808;2024-02-26T03:36:02;5.15;;;2.17;;
62584;SDS011;48643;51.670;5.808;2024-02-26T03:38:29;3.70;;;2.20;;
62584;SDS011;48643;51.670;5.808;2024-02-26T03:40:56;3.38;;;2.25;;
62584;SDS011;48643;51.670;5.808;2024-02-26T03:43:23;2.72;;;2.13;;
62584;SDS011;48643;51.670;5.808;2024-02-26T03:45:50;3.65;;;2.28;;
62584;SDS011;48643;51.670;5.808;2024-02-26T03:48:17;5.45;;;2.50;;
62584;SDS011;48643;51.670;5.808;2024-02-26T03:50:44;4.03;;;2.33;;
62584;SDS011;48643;51.670;5.808;2024-02-26T03:53:11;3.95;;;2.10;;
62584;SDS011;48643;51.670;5.808;2024-02-26T03:55:40;3.22;;;2.30;;
62584;SDS011;48643;51.670;5.808;2024-02-26T03:58:08;3.15;;;2.10;;
62584;SDS011;48643;51.670;5.808;2024-02-26T04:00:36;3.08;;;2.30;;
62584;SDS011;48643;51.670;5.808;2024-02-26T04:03:04;4.55;;;2.30;;
62584;SDS011;48643;51.670;5.808;2024-02-26T04:05:31;3.00;;;2.10;;
62584;SDS011;48643;51.670;5.808;2024-02-26T04:07:58;3.65;;;2.30;;
62584;SDS011;48643;51.670;5.808;2024-02-26T04:10:24;5.00;;;2.45;;
62584;SDS011;48643;51.670;5.808;2024-02-26T04:12:51;4.65;;;2.28;;
62584;SDS011;48643;51.670;5.808;2024-02-26T04:15:18;3.33;;;2.20;;
62584;SDS011;48643;51.670;5.808;2024-02-26T04:17:45;3.03;;;2.15;;
62584;SDS011;48643;51.670;5.808;2024-02-26T04:20:13;3.22;;;2.10;;
62584;SDS011;48643;51.670;5.808;2024-02-26T04:22:41;3.90;;;2.15;;
62584;SDS011;48643;51.670;5.808;2024-02-26T04:25:08;4.13;;;2.22;;
62584;SDS011;48643;51.670;5.808;2024-02-26T04:27:35;3.50;;;2.33;;
62584;SDS011;48643;51.670;5.808;2024-02-26T04:30:02;3.28;;;2.33;;
62584;SDS011;48643;51.670;5.808;2024-02-26T04:32:30;3.47;;;2.30;;
62584;SDS011;48643;51.670;5.808;2024-02-26T04:34:57;3.83;;;2.50;;
62584;SDS011;48643;51.670;5.808;2024-02-26T04:37:24;4.88;;;2.40;;
62584;SDS011;48643;51.670;5.808;2024-02-26T04:39:51;4.25;;;2.50;;
62584;SDS011;48643;51.670;5.808;2024-02-26T04:42:17;3.28;;;2.30;;
62584;SDS011;48643;51.670;5.808;2024-02-26T04:44:44;3.30;;;2.25;;
62584;SDS011;48643;51.670;5.808;2024-02-26T04:47:11;3.78;;;2.80;;
62584;SDS011;48643;51.670;5.808;2024-02-26T04:49:39;4.00;;;2.95;;
62584;SDS011;48643;51.670;5.808;2024-02-26T04:52:06;3.95;;;2.75;;
62584;SDS011;48643;51.670;5.808;2024-02-26T04:54:33;4.18;;;2.70;;
62584;SDS011;48643;51.670;5.808;2024-02-26T04:57:00;3.40;;;2.70;;
62584;SDS011;48643;51.670;5.808;2024-02-26T04:59:27;3.38;;;2.58;;
62584;SDS011;48643;51.670;5.808;2024-02-26T05:01:54;4.63;;;2.90;;
62584;SDS011;48643;51.670;5.808;2024-02-26T05:04:21;3.35;;;2.60;;
62584;SDS011;48643;51.670;5.808;2024-02-26T05:06:48;3.70;;;2.80;;
62584;SDS011;48643;51.670;5.808;2024-02-26T05:09:15;4.30;;;2.78;;
62584;SDS011;48643;51.670;5.808;2024-02-26T05:11:42;3.90;;;2.50;;
62584;SDS011;48643;51.670;5.808;2024-02-26T05:14:10;4.25;;;2.78;;
62584;SDS011;48643;51.670;5.808;2024-02-26T05:16:37;5.03;;;2.78;;
62584;SDS011;48643;51.670;5.808;2024-02-26T05:19:04;4.88;;;2.78;;
62584;SDS011;48643;51.670;5.808;2024-02-26T05:21:32;3.92;;;2.88;;
62584;SDS011;48643;51.670;5.808;2024-02-26T05:24:00;6.03;;;2.97;;
62584;SDS011;48643;51.670;5.808;2024-02-26T05:26:27;4.10;;;2.80;;
62584;SDS011;48643;51.670;5.808;2024-02-26T05:28:53;5.32;;;2.70;;
62584;SDS011;48643;51.670;5.808;2024-02-26T05:31:26;4.03;;;2.72;;
62584;SDS011;48643;51.670;5.808;2024-02-26T05:33:53;4.00;;;2.80;;
62584;SDS011;48643;51.670;5.808;2024-02-26T05:36:20;4.88;;;3.10;;
62584;SDS011;48643;51.670;5.808;2024-02-26T05:38:49;4.90;;;3.08;;
62584;SDS011;48643;51.670;5.808;2024-02-26T05:41:16;5.43;;;3.03;;
62584;SDS011;48643;51.670;5.808;2024-02-26T05:43:46;4.97;;;3.40;;
62584;SDS011;48643;51.670;5.808;2024-02-26T05:46:13;5.72;;;3.38;;
62584;SDS011;48643;51.670;5.808;2024-02-26T05:48:43;5.25;;;3.40;;
62584;SDS011;48643;51.670;5.808;2024-02-26T05:51:14;6.05;;;3.40;;
62584;SDS011;48643;51.670;5.808;2024-02-26T05:53:41;6.18;;;3.35;;
62584;SDS011;48643;51.670;5.808;2024-02-26T05:56:08;7.90;;;3.30;;
62584;SDS011;48643;51.670;5.808;2024-02-26T05:58:35;4.90;;;3.22;;
62584;SDS011;48643;51.670;5.808;2024-02-26T06:01:01;5.00;;;3.38;;
62584;SDS011;48643;51.670;5.808;2024-02-26T06:03:29;4.97;;;3.35;;
62584;SDS011;48643;51.670;5.808;2024-02-26T06:05:56;5.50;;;3.67;;
62584;SDS011;48643;51.670;5.808;2024-02-26T06:08:23;4.78;;;3.20;;
62584;SDS011;48643;51.670;5.808;2024-02-26T06:10:50;4.60;;;3.10;;
62584;SDS011;48643;51.670;5.808;2024-02-26T06:13:17;5.55;;;3.60;;
62584;SDS011;48643;51.670;5.808;2024-02-26T06:15:43;5.10;;;3.50;;
62584;SDS011;48643;51.670;5.808;2024-02-26T06:18:10;6.07;;;3.30;;
62584;SDS011;48643;51.670;5.808;2024-02-26T06:20:37;4.90;;;3.20;;
62584;SDS011;48643;51.670;5.808;2024-02-26T06:23:04;5.80;;;3.55;;
62584;SDS011;48643;51.670;5.808;2024-02-26T06:25:31;5.15;;;3.40;;
62584;SDS011;48643;51.670;5.808;2024-02-26T06:27:58;4.63;;;2.92;;
62584;SDS011;48643;51.670;5.808;2024-02-26T06:30:25;4.32;;;3.10;;
62584;SDS011;48643;51.670;5.808;2024-02-26T06:32:52;5.97;;;3.10;;
62584;SDS011;48643;51.670;5.808;2024-02-26T06:35:19;8.27;;;3.58;;
62584;SDS011;48643;51.670;5.808;2024-02-26T06:37:46;4.72;;;3.17;;
62584;SDS011;48643;51.670;5.808;2024-02-26T06:40:13;6.00;;;3.45;;
62584;SDS011;48643;51.670;5.808;2024-02-26T06:42:40;6.85;;;3.47;;
62584;SDS011;48643;51.670;5.808;2024-02-26T06:45:07;6.53;;;3.30;;
62584;SDS011;48643;51.670;5.808;2024-02-26T06:47:34;7.80;;;3.45;;
62584;SDS011;48643;51.670;5.808;2024-02-26T06:50:02;5.00;;;3.20;;
62584;SDS011;48643;51.670;5.808;2024-02-26T06:52:30;5.45;;;3.47;;
62584;SDS011;48643;51.670;5.808;2024-02-26T06:54:57;6.28;;;3.05;;
62584;SDS011;48643;51.670;5.808;2024-02-26T06:57:23;5.53;;;3.10;;
62584;SDS011;48643;51.670;5.808;2024-02-26T06:59:50;4.20;;;3.10;;
62584;SDS011;48643;51.670;5.808;2024-02-26T07:02:17;5.28;;;3.30;;
62584;SDS011;48643;51.670;5.808;2024-02-26T07:04:44;8.18;;;3.15;;
62584;SDS011;48643;51.670;5.808;2024-02-26T07:07:11;4.82;;;3.05;;
62584;SDS011;48643;51.670;5.808;2024-02-26T07:09:41;5.20;;;3.20;;
62584;SDS011;48643;51.670;5.808;2024-02-26T07:12:08;6.18;;;3.00;;
62584;SDS011;48643;51.670;5.808;2024-02-26T07:14:35;5.75;;;3.08;;
62584;SDS011;48643;51.670;5.808;2024-02-26T07:17:04;4.30;;;3.10;;
62584;SDS011;48643;51.670;5.808;2024-02-26T07:19:30;6.47;;;3.10;;
62584;SDS011;48643;51.670;5.808;2024-02-26T07:21:57;6.25;;;3.42;;
62584;SDS011;48643;51.670;5.808;2024-02-26T07:24:24;7.18;;;3.53;;
62584;SDS011;48643;51.670;5.808;2024-02-26T07:26:51;4.78;;;3.42;;
62584;SDS011;48643;51.670;5.808;2024-02-26T07:29:21;4.10;;;3.10;;
62584;SDS011;48643;51.670;5.808;2024-02-26T07:31:47;5.55;;;3.10;;
62584;SDS011;48643;51.670;5.808;2024-02-26T07:34:14;5.50;;;3.20;;
62584;SDS011;48643;51.670;5.808;2024-02-26T07:36:41;5.28;;;3.53;;
62584;SDS011;48643;51.670;5.808;2024-02-26T07:39:08;6.35;;;3.47;;
62584;SDS011;48643;51.670;5.808;2024-02-26T07:41:36;6.13;;;3.80;;
62584;SDS011;48643;51.670;5.808;2024-02-26T07:44:05;4.57;;;3.15;;
62584;SDS011;48643;51.670;5.808;2024-02-26T07:46:32;4.15;;;3.20;;
62584;SDS011;48643;51.670;5.808;2024-02-26T07:48:59;5.90;;;3.35;;
62584;SDS011;48643;51.670;5.808;2024-02-26T07:51:26;6.30;;;3.00;;
62584;SDS011;48643;51.670;5.808;2024-02-26T07:53:53;4.50;;;3.28;;
62584;SDS011;48643;51.670;5.808;2024-02-26T07:56:20;4.57;;;2.80;;
62584;SDS011;48643;51.670;5.808;2024-02-26T07:58:46;6.90;;;2.88;;
62584;SDS011;48643;51.670;5.808;2024-02-26T08:01:13;4.00;;;3.15;;
62584;SDS011;48643;51.670;5.808;2024-02-26T08:03:41;6.90;;;3.20;;
62584;SDS011;48643;51.670;5.808;2024-02-26T08:06:08;7.50;;;3.25;;
62584;SDS011;48643;51.670;5.808;2024-02-26T08:08:35;5.07;;;3.10;;
62584;SDS011;48643;51.670;5.808;2024-02-26T08:11:02;4.32;;;2.97;;
62584;SDS011;48643;51.670;5.808;2024-02-26T08:13:29;4.82;;;2.88;;
62584;SDS011;48643;51.670;5.808;2024-02-26T08:15:57;5.07;;;3.00;;
62584;SDS011;48643;51.670;5.808;2024-02-26T08:18:25;4.75;;;2.80;;
62584;SDS011;48643;51.670;5.808;2024-02-26T08:20:52;4.78;;;2.90;;
62584;SDS011;48643;51.670;5.808;2024-02-26T08:23:19;7.80;;;2.70;;
62584;SDS011;48643;51.670;5.808;2024-02-26T08:25:46;5.97;;;3.10;;
62584;SDS011;48643;51.670;5.808;2024-02-26T08:28:13;5.80;;;2.83;;
62584;SDS011;48643;51.670;5.808;2024-02-26T08:30:40;5.60;;;3.00;;
62584;SDS011;48643;51.670;5.808;2024-02-26T08:33:07;5.07;;;2.60;;
62584;SDS011;48643;51.670;5.808;2024-02-26T08:35:34;5.15;;;2.80;;
62584;SDS011;48643;51.670;5.808;2024-02-26T08:38:01;4.28;;;2.60;;
62584;SDS011;48643;51.670;5.808;2024-02-26T08:40:29;6.72;;;2.90;;
62584;SDS011;48643;51.670;5.808;2024-02-26T08:42:56;6.05;;;3.00;;
62584;SDS011;48643;51.670;5.808;2024-02-26T08:45:23;5.90;;;3.05;;
62584;SDS011;48643;51.670;5.808;2024-02-26T08:47:54;4.63;;;2.97;;
62584;SDS011;48643;51.670;5.808;2024-02-26T08:50:21;4.35;;;2.95;;
62584;SDS011;48643;51.670;5.808;2024-02-26T08:52:48;4.93;;;2.90;;
62584;SDS011;48643;51.670;5.808;2024-02-26T08:55:17;4.75;;;3.05;;
62584;SDS011;48643;51.670;5.808;2024-02-26T08:57:44;4.97;;;2.90;;
62584;SDS011;48643;51.670;5.808;2024-02-26T09:00:11;4.53;;;3.13;;
62584;SDS011;48643;51.670;5.808;2024-02-26T09:02:38;4.88;;;3.00;;
62584;SDS011;48643;51.670;5.808;2024-02-26T09:05:05;5.47;;;3.28;;
62584;SDS011;48643;51.670;5.808;2024-02-26T09:07:32;4.43;;;3.00;;
62584;SDS011;48643;51.670;5.808;2024-02-26T09:10:00;4.45;;;2.95;;
62584;SDS011;48643;51.670;5.808;2024-02-26T09:12:27;5.65;;;3.17;;
62584;SDS011;48643;51.670;5.808;2024-02-26T09:14:54;5.53;;;3.25;;
62584;SDS011;48643;51.670;5.808;2024-02-26T09:17:22;6.37;;;3.00;;
62584;SDS011;48643;51.670;5.808;2024-02-26T09:19:49;8.82;;;2.70;;
62584;SDS011;48643;51.670;5.808;2024-02-26T09:22:16;7.22;;;3.00;;
62584;SDS011;48643;51.670;5.808;2024-02-26T09:24:44;4.95;;;3.10;;
62584;SDS011;48643;51.670;5.808;2024-02-26T09:27:11;6.03;;;3.28;;
62584;SDS011;48643;51.670;5.808;2024-02-26T09:29:38;4.78;;;3.13;;
62584;SDS011;48643;51.670;5.808;2024-02-26T09:32:05;7.40;;;3.33;;
62584;SDS011;48643;51.670;5.808;2024-02-26T09:34:32;4.93;;;3.38;;
62584;SDS011;48643;51.670;5.808;2024-02-26T09:37:00;4.55;;;3.13;;
62584;SDS011;48643;51.670;5.808;2024-02-26T09:39:40;5.55;;;3.13;;
62584;SDS011;48643;51.670;5.808;2024-02-26T09:42:08;7.13;;;3.20;;
62584;SDS011;48643;51.670;5.808;2024-02-26T09:44:36;4.43;;;3.07;;
62584;SDS011;48643;51.670;5.808;2024-02-26T09:47:11;4.32;;;3.00;;
62584;SDS011;48643;51.670;5.808;2024-02-26T09:49:41;6.18;;;3.40;;
62584;SDS011;48643;51.670;5.808;2024-02-26T09:52:09;7.05;;;3.05;;
62584;SDS011;48643;51.670;5.808;2024-02-26T09:54:36;5.30;;;3.38;;
62584;SDS011;48643;51.670;5.808;2024-02-26T09:57:03;5.38;;;3.20;;
62584;SDS011;48643;51.670;5.808;2024-02-26T09:59:34;5.13;;;3.35;;
62584;SDS011;48643;51.670;5.808;2024-02-26T10:02:08;5.82;;;3.50;;
62584;SDS011;48643;51.670;5.808;2024-02-26T10:04:39;5.68;;;3.50;;
62584;SDS011;48643;51.670;5.808;2024-02-26T10:07:10;7.15;;;3.50;;
62584;SDS011;48643;51.670;5.808;2024-02-26T10:09:38;5.68;;;3.60;;
62584;SDS011;48643;51.670;5.808;2024-02-26T10:12:06;7.93;;;3.50;;
62584;SDS011;48643;51.670;5.808;2024-02-26T10:14:35;5.78;;;3.30;;
62584;SDS011;48643;51.670;5.808;2024-02-26T10:17:02;4.70;;;3.35;;
62584;SDS011;48643;51.670;5.808;2024-02-26T10:19:34;5.25;;;3.60;;
62584;SDS011;48643;51.670;5.808;2024-02-26T10:22:04;5.55;;;3.50;;
62584;SDS011;48643;51.670;5.808;2024-02-26T10:24:31;5.57;;;3.53;;
62584;SDS011;48643;51.670;5.808;2024-02-26T10:26:59;5.60;;;3.50;;
62584;SDS011;48643;51.670;5.808;2024-02-26T10:29:26;6.75;;;3.80;;
62584;SDS011;48643;51.670;5.808;2024-02-26T10:31:53;5.55;;;3.28;;
62584;SDS011;48643;51.670;5.808;2024-02-26T10:34:20;6.70;;;3.50;;
62584;SDS011;48643;51.670;5.808;2024-02-26T10:36:48;5.57;;;3.42;;
62584;SDS011;48643;51.670;5.808;2024-02-26T10:39:20;6.40;;;4.05;;
62584;SDS011;48643;51.670;5.808;2024-02-26T10:41:48;7.22;;;3.72;;
62584;SDS011;48643;51.670;5.808;2024-02-26T10:44:16;9.20;;;3.72;;
62584;SDS011;48643;51.670;5.808;2024-02-26T10:46:46;5.20;;;3.67;;
62584;SDS011;48643;51.670;5.808;2024-02-26T10:49:15;4.90;;;3.67;;
62584;SDS011;48643;51.670;5.808;2024-02-26T10:51:45;5.15;;;3.80;;
62584;SDS011;48643;51.670;5.808;2024-02-26T10:54:19;8.48;;;4.15;;
62584;SDS011;48643;51.670;5.808;2024-02-26T10:56:46;7.82;;;4.07;;
62584;SDS011;48643;51.670;5.808;2024-02-26T10:59:15;5.37;;;3.80;;
62584;SDS011;48643;51.670;5.808;2024-02-26T11:01:47;7.07;;;3.85;;
62584;SDS011;48643;51.670;5.808;2024-02-26T11:04:16;6.07;;;3.72;;
62584;SDS011;48643;51.670;5.808;2024-02-26T11:06:47;6.20;;;4.38;;
62584;SDS011;48643;51.670;5.808;2024-02-26T11:09:14;7.70;;;4.13;;
62584;SDS011;48643;51.670;5.808;2024-02-26T11:11:42;6.65;;;4.35;;
62584;SDS011;48643;51.670;5.808;2024-02-26T11:14:09;7.90;;;5.03;;
62584;SDS011;48643;51.670;5.808;2024-02-26T11:16:37;9.98;;;5.00;;
62584;SDS011;48643;51.670;5.808;2024-02-26T11:19:06;8.90;;;4.88;;
62584;SDS011;48643;51.670;5.808;2024-02-26T11:21:36;8.38;;;4.20;;
62584;SDS011;48643;51.670;5.808;2024-02-26T11:24:08;7.38;;;4.35;;
62584;SDS011;48643;51.670;5.808;2024-02-26T11:26:57;9.20;;;4.90;;
62584;SDS011;48643;51.670;5.808;2024-02-26T11:29:33;6.88;;;4.63;;
62584;SDS011;48643;51.670;5.808;2024-02-26T11:32:04;8.27;;;4.40;;
62584;SDS011;48643;51.670;5.808;2024-02-26T11:34:32;6.43;;;4.32;;
62584;SDS011;48643;51.670;5.808;2024-02-26T11:37:08;7.70;;;4.70;;
62584;SDS011;48643;51.670;5.808;2024-02-26T11:39:39;8.15;;;4.63;;
62584;SDS011;48643;51.670;5.808;2024-02-26T11:42:07;7.47;;;4.60;;
62584;SDS011;48643;51.670;5.808;2024-02-26T11:44:35;6.95;;;4.50;;
62584;SDS011;48643;51.670;5.808;2024-02-26T11:47:11;6.95;;;4.28;;
62584;SDS011;48643;51.670;5.808;2024-02-26T11:49:39;8.48;;;5.00;;
62584;SDS011;48643;51.670;5.808;2024-02-26T11:52:07;7.47;;;4.80;;
62584;SDS011;48643;51.670;5.808;2024-02-26T11:54:51;10.75;;;5.22;;
62584;SDS011;48643;51.670;5.808;2024-02-26T11:57:23;16.17;;;8.40;;
62584;SDS011;48643;51.670;5.808;2024-02-26T12:02:45;11.52;;;6.35;;
62584;SDS011;48643;51.670;5.808;2024-02-26T12:05:20;13.02;;;6.32;;
62584;SDS011;48643;51.670;5.808;2024-02-26T12:08:00;12.10;;;7.07;;
62584;SDS011;48643;51.670;5.808;2024-02-26T12:10:41;13.15;;;7.40;;
62584;SDS011;48643;51.670;5.808;2024-02-26T12:13:11;13.30;;;7.05;;
62584;SDS011;48643;51.670;5.808;2024-02-26T12:15:45;15.48;;;7.10;;
62584;SDS011;48643;51.670;5.808;2024-02-26T12:18:23;11.25;;;7.20;;
62584;SDS011;48643;51.670;5.808;2024-02-26T12:21:00;13.07;;;7.40;;
62584;SDS011;48643;51.670;5.808;2024-02-26T12:23:30;12.48;;;7.05;;
62584;SDS011;48643;51.670;5.808;2024-02-26T12:26:00;15.35;;;8.07;;
62584;SDS011;48643;51.670;5.808;2024-02-26T12:28:32;14.50;;;7.38;;
62584;SDS011;48643;51.670;5.808;2024-02-26T12:30:59;13.13;;;7.55;;
62584;SDS011;48643;51.670;5.808;2024-02-26T12:33:27;13.00;;;7.45;;
62584;SDS011;48643;51.670;5.808;2024-02-26T12:35:55;15.70;;;7.63;;
62584;SDS011;48643;51.670;5.808;2024-02-26T12:38:23;13.15;;;7.60;;
62584;SDS011;48643;51.670;5.808;2024-02-26T12:40:50;13.15;;;7.60;;
62584;SDS011;48643;51.670;5.808;2024-02-26T12:43:17;23.35;;;10.88;;
62584;SDS011;48643;51.670;5.808;2024-02-26T12:45:44;21.17;;;9.95;;
62584;SDS011;48643;51.670;5.808;2024-02-26T12:48:14;18.88;;;10.45;;
62584;SDS011;48643;51.670;5.808;2024-02-26T12:50:47;17.23;;;10.13;;
62584;SDS011;48643;51.670;5.808;2024-02-26T12:53:15;20.75;;;10.00;;
62584;SDS011;48643;51.670;5.808;2024-02-26T12:55:42;18.40;;;9.43;;
62584;SDS011;48643;51.670;5.808;2024-02-26T12:58:09;17.52;;;9.48;;
62584;SDS011;48643;51.670;5.808;2024-02-26T13:00:36;19.83;;;9.98;;
62584;SDS011;48643;51.670;5.808;2024-02-26T13:03:04;18.13;;;9.43;;
62584;SDS011;48643;51.670;5.808;2024-02-26T13:05:31;18.45;;;9.48;;
62584;SDS011;48643;51.670;5.808;2024-02-26T13:07:58;19.35;;;9.75;;
62584;SDS011;48643;51.670;5.808;2024-02-26T13:10:25;18.55;;;8.85;;
62584;SDS011;48643;51.670;5.808;2024-02-26T13:12:52;16.85;;;8.95;;
62584;SDS011;48643;51.670;5.808;2024-02-26T13:15:20;16.90;;;9.05;;
62584;SDS011;48643;51.670;5.808;2024-02-26T13:17:48;16.83;;;8.90;;
62584;SDS011;48643;51.670;5.808;2024-02-26T13:20:49;17.48;;;8.90;;
62584;SDS011;48643;51.670;5.808;2024-02-26T13:23:10;16.50;;;8.52;;
62584;SDS011;48643;51.670;5.808;2024-02-26T13:25:38;15.32;;;8.77;;
62584;SDS011;48643;51.670;5.808;2024-02-26T13:28:14;15.10;;;8.07;;
62584;SDS011;48643;51.670;5.808;2024-02-26T13:30:52;17.05;;;8.13;;
62584;SDS011;48643;51.670;5.808;2024-02-26T13:33:23;14.93;;;8.27;;
62584;SDS011;48643;51.670;5.808;2024-02-26T13:35:51;18.98;;;7.93;;
62584;SDS011;48643;51.670;5.808;2024-02-26T13:38:19;12.95;;;7.85;;
62584;SDS011;48643;51.670;5.808;2024-02-26T13:40:46;14.25;;;7.80;;
62584;SDS011;48643;51.670;5.808;2024-02-26T13:43:13;13.57;;;7.65;;
62584;SDS011;48643;51.670;5.808;2024-02-26T13:45:40;15.52;;;7.60;;
62584;SDS011;48643;51.670;5.808;2024-02-26T13:48:07;13.93;;;7.60;;
62584;SDS011;48643;51.670;5.808;2024-02-26T13:50:38;12.63;;;7.43;;
62584;SDS011;48643;51.670;5.808;2024-02-26T13:53:05;13.70;;;7.47;;
62584;SDS011;48643;51.670;5.808;2024-02-26T13:55:33;11.93;;;6.85;;
62584;SDS011;48643;51.670;5.808;2024-02-26T13:58:00;13.10;;;7.05;;
62584;SDS011;48643;51.670;5.808;2024-02-26T14:00:28;12.95;;;7.40;;
62584;SDS011;48643;51.670;5.808;2024-02-26T14:03:00;11.77;;;6.57;;
62584;SDS011;48643;51.670;5.808;2024-02-26T14:05:28;11.20;;;6.93;;
62584;SDS011;48643;51.670;5.808;2024-02-26T14:07:56;13.63;;;6.97;;
62584;SDS011;48643;51.670;5.808;2024-02-26T14:10:23;14.45;;;7.15;;
62584;SDS011;48643;51.670;5.808;2024-02-26T14:12:50;13.70;;;6.65;;
62584;SDS011;48643;51.670;5.808;2024-02-26T14:15:17;11.70;;;6.78;;
62584;SDS011;48643;51.670;5.808;2024-02-26T14:17:44;11.25;;;6.38;;
62584;SDS011;48643;51.670;5.808;2024-02-26T14:20:12;12.38;;;6.55;;
62584;SDS011;48643;51.670;5.808;2024-02-26T14:22:39;11.55;;;6.40;;
62584;SDS011;48643;51.670;5.808;2024-02-26T14:25:06;12.00;;;6.47;;
62584;SDS011;48643;51.670;5.808;2024-02-26T14:27:35;11.95;;;6.18;;
62584;SDS011;48643;51.670;5.808;2024-02-26T14:30:02;11.23;;;6.20;;
62584;SDS011;48643;51.670;5.808;2024-02-26T14:32:30;11.20;;;6.18;;
62584;SDS011;48643;51.670;5.808;2024-02-26T14:35:01;11.48;;;6.10;;
62584;SDS011;48643;51.670;5.808;2024-02-26T14:37:29;8.05;;;5.43;;
62584;SDS011;48643;51.670;5.808;2024-02-26T14:39:56;9.93;;;5.80;;
62584;SDS011;48643;51.670;5.808;2024-02-26T14:42:22;9.75;;;5.40;;
62584;SDS011;48643;51.670;5.808;2024-02-26T14:44:50;9.27;;;5.70;;
62584;SDS011;48643;51.670;5.808;2024-02-26T14:47:17;10.50;;;5.95;;
62584;SDS011;48643;51.670;5.808;2024-02-26T14:49:44;9.88;;;5.47;;
62584;SDS011;48643;51.670;5.808;2024-02-26T14:52:14;9.43;;;5.50;;
62584;SDS011;48643;51.670;5.808;2024-02-26T14:54:41;9.50;;;5.60;;